Hav Tind — OZ2071 — position and weather

sailwx.info

Track history (hours):
 
Tides and Currents Weather Stations Pressure Air Temp Water Temp Dewpoint Dewpoint Depression Visibility Wind Speed Wind Dir Waves Ship Positions

Hav Tind

Last reported at 2017-Mar-14 09:32 UTC. Time now 2017-Mar-28 21:46 UTC.
Position N 62°14' W 006°48'.
Warning: this ship's position is 14 days out of date.

Length 60 m; draft 4 m.

Type: Cargo ship. MMSI: 231565000.

Date/timePositionNaut miles runAvg speedWind from/ knotsBaromVisibWave heightAir tempDewpointWater temp
2017-Mar-14 09:32N 62°14' W 006°48'0 0.0
2017-Mar-14 08:33N 62°14' W 006°48'0 0.0
2017-Mar-13 01:24N 62°14' W 006°48'0 0.0
2017-Mar-13 00:29N 62°14' W 006°48'0 0.0
2017-Mar-12 23:23N 62°14' W 006°48'0 0.0
2017-Mar-12 22:19N 62°14' W 006°48'0 0.0
2017-Mar-12 21:28N 62°14' W 006°48'0 0.0
2017-Mar-12 20:30N 62°14' W 006°48'0 0.0
2017-Mar-12 19:20N 62°14' W 006°48'0 0.0
2017-Mar-12 18:23N 62°14' W 006°48'0 0.0
2017-Mar-12 17:27N 62°14' W 006°48'0 0.0
2017-Mar-12 16:28N 62°14' W 006°48'0 0.0
2017-Mar-12 15:33N 62°14' W 006°48'0 0.0
2017-Mar-12 14:27N 62°14' W 006°48'0 0.0
2017-Mar-12 13:30N 62°14' W 006°48'0 0.0
2017-Mar-12 12:33N 62°14' W 006°48'0 0.0
2017-Mar-12 11:33N 62°14' W 006°48'0 0.0
2017-Mar-12 10:30N 62°14' W 006°48'0 0.0
2017-Mar-12 09:33N 62°14' W 006°48'0 0.0
2017-Mar-12 08:32N 62°14' W 006°48'0 0.0
2017-Mar-12 07:33N 62°14' W 006°48'0 0.0
2017-Mar-12 06:33N 62°14' W 006°48'0 0.0
2017-Mar-12 05:33N 62°14' W 006°48'0 0.0
2017-Mar-12 04:33N 62°14' W 006°48'0 0.0
2017-Mar-12 03:33N 62°14' W 006°48'0 0.0
2017-Mar-11 02:33N 62°14' W 006°48'0 0.0
2017-Mar-11 01:29N 62°14' W 006°48'0 0.0
2017-Mar-11 00:33N 62°14' W 006°48'0 0.0
2017-Mar-10 23:32N 62°14' W 006°48'0 0.0
2017-Mar-10 22:28N 62°14' W 006°48'0 0.0
2017-Mar-10 21:30N 62°14' W 006°48'0 0.0
2017-Mar-10 20:32N 62°14' W 006°48'0 0.0
2017-Mar-10 19:32N 62°14' W 006°48'0 0.0
2017-Mar-10 18:26N 62°14' W 006°48'0 0.0
2017-Mar-10 17:29N 62°14' W 006°48'0 0.0
2017-Mar-10 16:31N 62°14' W 006°48'0 0.0
2017-Mar-10 15:30N 62°14' W 006°48'0 0.0
2017-Mar-10 14:28N 62°14' W 006°48'0 0.0
2017-Mar-10 13:33N 62°14' W 006°48'0 0.0
2017-Mar-10 12:11N 62°14' W 006°48'0 0.0
2017-Mar-10 11:31N 62°14' W 006°48'1 0.7
2017-Mar-10 10:26N 62°13' W 006°48'0 0.4
2017-Mar-10 09:32N 62°13' W 006°47'1 1.0
2017-Mar-10 08:32N 62°14' W 006°48'0 0.0
2017-Mar-10 07:25N 62°14' W 006°48'0 0.0
2017-Mar-10 06:30N 62°14' W 006°48'0 0.0
2017-Mar-10 05:33N 62°14' W 006°48'0 0.0
2017-Mar-10 04:31N 62°14' W 006°48'0 0.0
2017-Mar-10 03:31N 62°14' W 006°48'0 0.0
2017-Mar-10 02:33N 62°14' W 006°48'0 0.0
2017-Mar-10 01:32N 62°14' W 006°48'0 0.0
2017-Mar-10 00:26N 62°14' W 006°48'0 0.0
2017-Mar-09 23:30N 62°14' W 006°48'0 0.0
2017-Mar-09 22:33N 62°14' W 006°48'0 0.0
2017-Mar-09 21:29N 62°14' W 006°48'0 0.0
2017-Mar-09 20:23N 62°14' W 006°48'0 0.0
2017-Mar-09 19:28N 62°14' W 006°48'0 0.0
2017-Mar-09 18:26N 62°14' W 006°48'0 0.0
2017-Mar-09 17:28N 62°14' W 006°48'5 1.3
2017-Mar-09 13:24N 62°18' W 006°56'10 5.0
2017-Mar-09 11:28N 62°10' W 006°43'5 2.4
2017-Mar-09 09:33N 62°14' W 006°48'0 0.0
2017-Mar-08 00:27N 62°14' W 006°48'0 0.0
2017-Mar-07 23:15N 62°14' W 006°48'0 0.0
2017-Mar-07 22:31N 62°14' W 006°48'0 0.0
2017-Mar-07 21:33N 62°14' W 006°48'0 0.0
2017-Mar-07 20:33N 62°14' W 006°48'0 0.0
2017-Mar-07 19:26N 62°14' W 006°48'0 0.0
2017-Mar-07 02:29N 62°14' W 006°48'0 0.0
2017-Mar-07 01:33N 62°14' W 006°48'0 0.0
2017-Mar-07 00:32N 62°14' W 006°48'0 0.0
2017-Mar-06 23:32N 62°14' W 006°48'0 0.0
2017-Mar-06 22:30N 62°14' W 006°48'0 0.0
2017-Mar-06 21:27N 62°14' W 006°48'0 0.0
2017-Mar-06 20:32N 62°14' W 006°48'0 0.0
2017-Mar-06 19:33N 62°14' W 006°48'0 0.0
2017-Mar-06 18:22N 62°14' W 006°48'0 0.0
2017-Mar-06 17:31N 62°14' W 006°48'0 0.0
2017-Mar-06 16:25N 62°14' W 006°48'0 0.0
2017-Mar-06 15:31N 62°14' W 006°48'0 0.0
2017-Mar-06 14:33N 62°14' W 006°48'0 0.0
2017-Mar-06 13:32N 62°14' W 006°48'0 0.0
2017-Mar-05 11:27N 62°14' W 006°48'0 0.0
2017-Mar-05 10:33N 62°14' W 006°48'0 0.0
2017-Mar-05 09:33N 62°14' W 006°48'0 0.0
2017-Mar-05 08:29N 62°14' W 006°48'0 0.0
2017-Mar-05 07:30N 62°14' W 006°48'0 0.0
2017-Mar-05 06:27N 62°14' W 006°48'0 0.0
2017-Mar-05 05:33N 62°14' W 006°48'0 0.0
2017-Mar-05 04:33N 62°14' W 006°48'0 0.0
2017-Mar-05 03:32N 62°14' W 006°48'  
Track history (hours):
 
Tides and Currents Weather Stations Pressure Air Temp Water Temp Dewpoint Dewpoint Depression Visibility Wind Speed Wind Dir Waves Ship Positions

Hav Tind

Last reported at 2017-Mar-14 09:32 UTC. Time now 2017-Mar-28 21:46 UTC.
Position N 62°14' W 006°48'.
Warning: this ship's position is 14 days out of date.

Length 60 m; draft 4 m.

Type: Cargo ship. MMSI: 231565000.

Date/timePositionNaut miles runAvg speedWind from/ knotsBaromVisibWave heightAir tempDewpointWater temp
2017-Mar-14 09:32N 62°14' W 006°48'0 0.0
2017-Mar-14 08:33N 62°14' W 006°48'0 0.0
2017-Mar-13 01:24N 62°14' W 006°48'0 0.0
2017-Mar-13 00:29N 62°14' W 006°48'0 0.0
2017-Mar-12 23:23N 62°14' W 006°48'0 0.0
2017-Mar-12 22:19N 62°14' W 006°48'0 0.0
2017-Mar-12 21:28N 62°14' W 006°48'0 0.0
2017-Mar-12 20:30N 62°14' W 006°48'0 0.0
2017-Mar-12 19:20N 62°14' W 006°48'0 0.0
2017-Mar-12 18:23N 62°14' W 006°48'0 0.0
2017-Mar-12 17:27N 62°14' W 006°48'0 0.0
2017-Mar-12 16:28N 62°14' W 006°48'0 0.0
2017-Mar-12 15:33N 62°14' W 006°48'0 0.0
2017-Mar-12 14:27N 62°14' W 006°48'0 0.0
2017-Mar-12 13:30N 62°14' W 006°48'0 0.0
2017-Mar-12 12:33N 62°14' W 006°48'0 0.0
2017-Mar-12 11:33N 62°14' W 006°48'0 0.0
2017-Mar-12 10:30N 62°14' W 006°48'0 0.0
2017-Mar-12 09:33N 62°14' W 006°48'0 0.0
2017-Mar-12 08:32N 62°14' W 006°48'0 0.0
2017-Mar-12 07:33N 62°14' W 006°48'0 0.0
2017-Mar-12 06:33N 62°14' W 006°48'0 0.0
2017-Mar-12 05:33N 62°14' W 006°48'0 0.0
2017-Mar-12 04:33N 62°14' W 006°48'0 0.0
2017-Mar-12 03:33N 62°14' W 006°48'0 0.0
2017-Mar-11 02:33N 62°14' W 006°48'0 0.0
2017-Mar-11 01:29N 62°14' W 006°48'0 0.0
2017-Mar-11 00:33N 62°14' W 006°48'0 0.0
2017-Mar-10 23:32N 62°14' W 006°48'0 0.0
2017-Mar-10 22:28N 62°14' W 006°48'0 0.0
2017-Mar-10 21:30N 62°14' W 006°48'0 0.0
2017-Mar-10 20:32N 62°14' W 006°48'0 0.0
2017-Mar-10 19:32N 62°14' W 006°48'0 0.0
2017-Mar-10 18:26N 62°14' W 006°48'0 0.0
2017-Mar-10 17:29N 62°14' W 006°48'0 0.0
2017-Mar-10 16:31N 62°14' W 006°48'0 0.0
2017-Mar-10 15:30N 62°14' W 006°48'0 0.0
2017-Mar-10 14:28N 62°14' W 006°48'0 0.0
2017-Mar-10 13:33N 62°14' W 006°48'0 0.0
2017-Mar-10 12:11N 62°14' W 006°48'0 0.0
2017-Mar-10 11:31N 62°14' W 006°48'1 0.7
2017-Mar-10 10:26N 62°13' W 006°48'0 0.4
2017-Mar-10 09:32N 62°13' W 006°47'1 1.0
2017-Mar-10 08:32N 62°14' W 006°48'0 0.0
2017-Mar-10 07:25N 62°14' W 006°48'0 0.0
2017-Mar-10 06:30N 62°14' W 006°48'0 0.0
2017-Mar-10 05:33N 62°14' W 006°48'0 0.0
2017-Mar-10 04:31N 62°14' W 006°48'0 0.0
2017-Mar-10 03:31N 62°14' W 006°48'0 0.0
2017-Mar-10 02:33N 62°14' W 006°48'0 0.0
2017-Mar-10 01:32N 62°14' W 006°48'0 0.0
2017-Mar-10 00:26N 62°14' W 006°48'0 0.0
2017-Mar-09 23:30N 62°14' W 006°48'0 0.0
2017-Mar-09 22:33N 62°14' W 006°48'0 0.0
2017-Mar-09 21:29N 62°14' W 006°48'0 0.0
2017-Mar-09 20:23N 62°14' W 006°48'0 0.0
2017-Mar-09 19:28N 62°14' W 006°48'0 0.0
2017-Mar-09 18:26N 62°14' W 006°48'0 0.0
2017-Mar-09 17:28N 62°14' W 006°48'5 1.3
2017-Mar-09 13:24N 62°18' W 006°56'10 5.0
2017-Mar-09 11:28N 62°10' W 006°43'5 2.4
2017-Mar-09 09:33N 62°14' W 006°48'0 0.0
2017-Mar-08 00:27N 62°14' W 006°48'0 0.0
2017-Mar-07 23:15N 62°14' W 006°48'0 0.0
2017-Mar-07 22:31N 62°14' W 006°48'0 0.0
2017-Mar-07 21:33N 62°14' W 006°48'0 0.0
2017-Mar-07 20:33N 62°14' W 006°48'0 0.0
2017-Mar-07 19:26N 62°14' W 006°48'0 0.0
2017-Mar-07 02:29N 62°14' W 006°48'0 0.0
2017-Mar-07 01:33N 62°14' W 006°48'0 0.0
2017-Mar-07 00:32N 62°14' W 006°48'0 0.0
2017-Mar-06 23:32N 62°14' W 006°48'0 0.0
2017-Mar-06 22:30N 62°14' W 006°48'0 0.0
2017-Mar-06 21:27N 62°14' W 006°48'0 0.0
2017-Mar-06 20:32N 62°14' W 006°48'0 0.0
2017-Mar-06 19:33N 62°14' W 006°48'0 0.0
2017-Mar-06 18:22N 62°14' W 006°48'0 0.0
2017-Mar-06 17:31N 62°14' W 006°48'0 0.0
2017-Mar-06 16:25N 62°14' W 006°48'0 0.0
2017-Mar-06 15:31N 62°14' W 006°48'0 0.0
2017-Mar-06 14:33N 62°14' W 006°48'0 0.0
2017-Mar-06 13:32N 62°14' W 006°48'0 0.0
2017-Mar-05 11:27N 62°14' W 006°48'0 0.0
2017-Mar-05 10:33N 62°14' W 006°48'0 0.0
2017-Mar-05 09:33N 62°14' W 006°48'0 0.0
2017-Mar-05 08:29N 62°14' W 006°48'0 0.0
2017-Mar-05 07:30N 62°14' W 006°48'0 0.0
2017-Mar-05 06:27N 62°14' W 006°48'0 0.0
2017-Mar-05 05:33N 62°14' W 006°48'0 0.0
2017-Mar-05 04:33N 62°14' W 006°48'0 0.0
2017-Mar-05 03:32N 62°14' W 006°48'  

Dump ship's entire track history